createdAt,value
2019-05-13T00:02:08.834Z,2.20
2019-05-13T00:04:44.278Z,2.55
2019-05-13T00:07:29.250Z,2.52
2019-05-13T00:09:58.646Z,1.25
2019-05-13T00:12:29.167Z,2.90
2019-05-13T00:14:58.381Z,2.95
2019-05-13T00:17:29.923Z,2.95
2019-05-13T00:19:58.836Z,1.00
2019-05-13T00:22:27.931Z,1.67
2019-05-13T00:24:58.753Z,1.85
2019-05-13T00:27:28.111Z,3.67
2019-05-13T00:29:57.374Z,1.77
2019-05-13T00:32:26.411Z,1.22
2019-05-13T00:34:56.026Z,1.27
2019-05-13T00:37:26.854Z,2.08
2019-05-13T00:39:56.202Z,1.63
2019-05-13T00:42:27.249Z,1.75
2019-05-13T00:44:56.289Z,1.03
2019-05-13T00:47:25.331Z,1.32
2019-05-13T00:49:56.943Z,3.75
2019-05-13T00:54:56.318Z,1.65
2019-05-13T00:57:26.339Z,2.40
2019-05-13T00:59:55.394Z,1.42
2019-05-13T01:02:26.589Z,1.65
2019-05-13T01:04:55.567Z,1.25
2019-05-13T01:07:28.538Z,1.45
2019-05-13T01:09:55.597Z,2.13
2019-05-13T01:12:24.827Z,2.52
2019-05-13T01:14:53.959Z,1.62
2019-05-13T01:17:23.625Z,1.35
2019-05-13T01:19:53.846Z,1.15
2019-05-13T01:22:24.000Z,1.52
2019-05-13T01:24:54.990Z,1.10
2019-05-13T01:27:24.254Z,1.35
2019-05-13T01:29:53.546Z,1.05
2019-05-13T01:32:23.864Z,1.25
2019-05-13T01:34:53.798Z,1.90
2019-05-13T01:37:39.095Z,1.20
2019-05-13T01:39:57.614Z,0.70
2019-05-13T01:42:26.617Z,1.87
2019-05-13T01:44:55.847Z,2.05
2019-05-13T01:47:25.040Z,1.30
2019-05-13T01:50:04.110Z,1.85
2019-05-13T01:52:34.313Z,2.40
2019-05-13T01:55:05.402Z,1.43
2019-05-13T01:57:40.265Z,2.22
2019-05-13T02:00:09.600Z,2.00
2019-05-13T02:02:38.638Z,1.95
2019-05-13T02:05:08.020Z,1.77
2019-05-13T02:07:37.443Z,2.12
2019-05-13T02:10:07.934Z,1.47
2019-05-13T02:12:37.479Z,1.95
2019-05-13T02:15:07.599Z,1.20
2019-05-13T02:17:37.295Z,1.85
2019-05-13T02:20:06.526Z,1.40
2019-05-13T02:22:38.901Z,2.35
2019-05-13T02:25:08.405Z,1.57
2019-05-13T02:27:44.007Z,0.72
2019-05-13T02:30:16.709Z,1.00
2019-05-13T02:32:45.999Z,1.40
2019-05-13T02:35:15.251Z,0.90
2019-05-13T02:37:46.005Z,2.02
2019-05-13T02:40:17.450Z,0.60
2019-05-13T02:42:52.304Z,1.25
2019-05-13T02:45:22.712Z,1.00
2019-05-13T02:48:03.869Z,1.65
2019-05-13T02:50:33.996Z,1.25
2019-05-13T02:53:03.426Z,2.55
2019-05-13T02:55:33.392Z,0.80
2019-05-13T02:58:03.206Z,0.80
2019-05-13T03:00:33.073Z,1.72
2019-05-13T03:03:03.312Z,2.30
2019-05-13T03:05:32.639Z,1.40
2019-05-13T03:08:03.331Z,1.15
2019-05-13T03:10:33.220Z,3.13
2019-05-13T03:13:14.860Z,1.07
2019-05-13T03:16:32.466Z,2.37
2019-05-13T03:19:02.773Z,1.80
2019-05-13T03:21:32.719Z,2.25
2019-05-13T03:24:22.781Z,0.70
2019-05-13T03:26:53.674Z,0.90
2019-05-13T03:29:22.894Z,1.37
2019-05-13T03:31:55.562Z,1.67
2019-05-13T03:34:27.689Z,1.85
2019-05-13T03:36:56.599Z,1.55
2019-05-13T03:39:24.823Z,1.77
2019-05-13T03:41:57.710Z,2.22
2019-05-13T03:44:26.770Z,2.22
2019-05-13T03:46:58.319Z,1.65
2019-05-13T03:49:28.829Z,1.77
2019-05-13T03:51:58.389Z,2.20
2019-05-13T03:54:27.754Z,2.02
2019-05-13T03:56:57.016Z,2.92
2019-05-13T03:59:26.663Z,1.65
2019-05-13T04:01:56.372Z,1.50
2019-05-13T04:04:25.679Z,1.37
2019-05-13T04:06:55.282Z,1.92
2019-05-13T04:09:31.291Z,0.95
2019-05-13T04:11:55.935Z,1.52
2019-05-13T04:14:25.198Z,2.00
2019-05-13T04:17:13.593Z,1.62
2019-05-13T04:19:43.575Z,1.50
2019-05-13T04:22:15.456Z,1.77
2019-05-13T04:24:44.963Z,1.70
2019-05-13T04:27:16.887Z,1.55
2019-05-13T04:29:47.451Z,2.42
2019-05-13T04:32:18.312Z,2.05
2019-05-13T04:34:54.283Z,2.62
2019-05-13T04:37:22.246Z,1.57
2019-05-13T04:39:56.468Z,1.93
2019-05-13T04:42:27.487Z,1.32
2019-05-13T04:44:56.696Z,2.72
2019-05-13T04:47:26.376Z,1.17
2019-05-13T04:49:57.837Z,1.92
2019-05-13T04:52:32.712Z,1.67
2019-05-13T04:55:03.411Z,1.52
2019-05-13T04:57:38.274Z,4.78
2019-05-13T05:00:08.265Z,2.17
2019-05-13T05:02:56.499Z,2.42
2019-05-13T05:06:11.991Z,5.40
2019-05-13T05:09:07.168Z,8.33
2019-05-13T05:12:13.113Z,7.45
2019-05-13T05:15:43.879Z,12.28
2019-05-13T05:19:02.243Z,12.40
2019-05-13T05:21:41.755Z,6.80
2019-05-13T05:25:01.594Z,3.27
2019-05-13T05:28:38.341Z,8.43
2019-05-13T05:35:26.543Z,5.17
2019-05-13T05:38:25.827Z,4.58
2019-05-13T05:43:33.714Z,5.72
2019-05-13T05:46:03.776Z,6.62
2019-05-13T05:48:33.209Z,4.83
2019-05-13T05:51:08.615Z,3.95
2019-05-13T05:56:44.053Z,5.05
2019-05-13T05:59:14.381Z,3.42
2019-05-13T06:02:01.996Z,9.95
2019-05-13T06:04:34.479Z,19.87
2019-05-13T06:07:04.041Z,10.93
2019-05-13T06:09:33.556Z,9.35
2019-05-13T06:12:03.097Z,10.98
2019-05-13T06:14:35.065Z,9.58
2019-05-13T06:17:04.561Z,12.03
2019-05-13T06:19:34.179Z,9.58
2019-05-13T06:22:03.817Z,16.40
2019-05-13T06:24:33.649Z,10.18
2019-05-13T06:27:03.087Z,8.13
2019-05-13T06:29:32.729Z,9.53
2019-05-13T06:32:19.172Z,6.62
2019-05-13T06:34:56.701Z,10.08
2019-05-13T06:37:28.609Z,11.08
2019-05-13T06:43:12.860Z,9.45
2019-05-13T06:45:42.352Z,11.03
2019-05-13T06:48:11.888Z,11.75
2019-05-13T06:50:42.808Z,6.85
2019-05-13T06:53:21.743Z,9.03
2019-05-13T06:55:52.302Z,10.00
2019-05-13T06:58:22.287Z,8.90
2019-05-13T07:00:51.974Z,12.03
2019-05-13T07:03:33.230Z,7.05
2019-05-13T07:06:02.736Z,7.13
2019-05-13T07:08:32.097Z,8.43
2019-05-13T07:11:17.819Z,12.23
2019-05-13T07:13:38.624Z,8.53
2019-05-13T07:16:08.087Z,9.53
2019-05-13T07:18:38.819Z,8.20
2019-05-13T07:21:08.526Z,7.37
2019-05-13T07:23:37.841Z,8.50
2019-05-13T07:26:07.721Z,9.23
2019-05-13T07:29:07.619Z,5.65
2019-05-13T07:40:52.173Z,6.72
2019-05-13T07:43:21.488Z,8.13
2019-05-13T07:45:51.441Z,4.70
2019-05-13T07:48:26.805Z,6.87
2019-05-13T07:50:59.548Z,8.90
2019-05-13T07:53:25.987Z,7.20
2019-05-13T07:55:56.820Z,5.50
2019-05-13T07:58:26.066Z,10.13
2019-05-13T08:00:55.236Z,6.95
2019-05-13T08:03:24.528Z,4.12
2019-05-13T08:05:54.015Z,6.05
2019-05-13T08:08:26.217Z,5.47
2019-05-13T08:10:55.670Z,6.15
2019-05-13T08:13:25.013Z,4.70
2019-05-13T08:15:54.791Z,4.92
2019-05-13T08:18:24.263Z,4.42
2019-05-13T08:20:53.640Z,4.87
2019-05-13T08:23:28.735Z,5.22
2019-05-13T08:26:02.244Z,6.28
2019-05-13T08:29:25.040Z,5.95
2019-05-13T08:31:54.455Z,2.92
2019-05-13T08:34:23.791Z,6.30
2019-05-13T08:36:53.638Z,4.10
2019-05-13T08:39:26.746Z,5.78
2019-05-13T08:42:10.261Z,3.80
2019-05-13T08:44:26.411Z,6.20
2019-05-13T08:46:57.458Z,5.70
2019-05-13T08:49:27.314Z,5.05
2019-05-13T08:52:02.104Z,4.80
2019-05-13T08:54:56.978Z,7.00
2019-05-13T08:57:56.868Z,3.87
2019-05-13T09:00:15.259Z,3.87
2019-05-13T09:02:44.606Z,4.62
2019-05-13T09:05:13.924Z,2.77
2019-05-13T09:07:44.590Z,4.00
2019-05-13T09:10:15.086Z,4.95
2019-05-13T09:12:45.231Z,3.77
2019-05-13T09:15:14.781Z,4.80
2019-05-13T09:17:44.335Z,3.52
2019-05-13T09:20:13.695Z,4.15
2019-05-13T09:22:43.067Z,4.37
2019-05-13T09:25:15.439Z,6.10
2019-05-13T09:34:03.090Z,3.62
2019-05-13T09:36:32.530Z,3.33
2019-05-13T09:39:02.204Z,2.58
2019-05-13T09:41:35.378Z,2.95
2019-05-13T09:44:17.791Z,3.37
2019-05-13T09:46:51.632Z,3.52
2019-05-13T09:49:23.633Z,3.15
2019-05-13T09:52:39.596Z,2.20
2019-05-13T09:55:21.120Z,3.35
2019-05-13T09:57:44.934Z,1.85
2019-05-13T10:00:15.626Z,2.37
2019-05-13T10:02:45.030Z,3.62
2019-05-13T10:05:14.149Z,3.98
2019-05-13T10:07:43.424Z,2.42
2019-05-13T10:10:12.498Z,2.85
2019-05-13T10:12:42.554Z,2.52
2019-05-13T10:15:12.833Z,1.70
2019-05-13T10:17:42.945Z,4.40
2019-05-13T10:23:12.681Z,3.17
2019-05-13T10:23:44.994Z,5.17
2019-05-13T10:25:44.283Z,3.33
2019-05-13T10:28:14.008Z,4.42
2019-05-13T10:30:43.738Z,4.47
2019-05-13T10:33:13.033Z,3.12
2019-05-13T10:36:03.367Z,3.42
2019-05-13T10:39:22.387Z,2.37
2019-05-13T10:42:39.760Z,3.00
2019-05-13T10:45:23.525Z,4.35
2019-05-13T10:48:10.464Z,2.52
2019-05-13T10:50:41.842Z,2.35
2019-05-13T10:53:12.256Z,3.10
2019-05-13T10:55:42.238Z,3.40
2019-05-13T10:58:12.314Z,4.40
2019-05-13T11:00:44.665Z,4.58
2019-05-13T11:03:13.904Z,2.20
2019-05-13T11:05:44.752Z,2.08
2019-05-13T11:08:21.902Z,2.55
2019-05-13T11:10:57.273Z,2.90
2019-05-13T11:13:52.142Z,7.20
2019-05-13T11:18:51.893Z,4.15
2019-05-13T11:21:26.365Z,4.80
2019-05-13T11:23:55.584Z,5.75
2019-05-13T11:26:26.402Z,4.17
2019-05-13T11:29:02.641Z,3.60
2019-05-13T11:31:32.895Z,4.20
2019-05-13T11:34:05.824Z,1.52
2019-05-13T11:36:42.738Z,4.30
2019-05-13T11:39:23.221Z,1.90
2019-05-13T11:41:55.573Z,5.58
2019-05-13T11:44:25.011Z,5.87
2019-05-13T11:46:54.248Z,4.78
2019-05-13T11:52:16.843Z,5.28
2019-05-13T11:57:24.850Z,2.90
2019-05-13T11:59:54.184Z,1.80
2019-05-13T12:02:23.574Z,4.83
2019-05-13T12:04:53.737Z,5.15
2019-05-13T12:07:23.441Z,6.55
2019-05-13T12:09:55.718Z,2.52
2019-05-13T12:12:30.502Z,3.52
2019-05-13T12:15:22.493Z,3.90
2019-05-13T12:17:27.073Z,3.37
2019-05-13T12:19:56.160Z,4.53
2019-05-13T12:22:25.531Z,3.72
2019-05-13T12:27:43.601Z,4.40
2019-05-13T12:30:12.939Z,3.15
2019-05-13T12:32:44.611Z,6.40
2019-05-13T12:37:44.385Z,4.92
2019-05-13T12:40:23.119Z,3.25
2019-05-13T12:42:53.861Z,4.25
2019-05-13T12:45:22.673Z,4.30
2019-05-13T12:47:53.009Z,5.17
2019-05-13T12:50:23.697Z,3.40
2019-05-13T12:52:53.151Z,2.60
2019-05-13T12:55:22.326Z,4.17
2019-05-13T12:58:12.142Z,2.98
2019-05-13T13:00:43.498Z,5.22
2019-05-13T13:03:13.274Z,5.40
2019-05-13T13:05:43.431Z,3.17
2019-05-13T13:08:19.205Z,2.42
2019-05-13T13:10:43.339Z,4.30
2019-05-13T13:13:12.435Z,2.75
2019-05-13T13:15:47.518Z,3.92
2019-05-13T13:18:14.278Z,3.23
2019-05-13T13:20:43.833Z,2.45
2019-05-13T13:23:13.178Z,4.12
2019-05-13T13:25:46.229Z,2.42
2019-05-13T13:28:15.536Z,6.75
2019-05-13T13:30:44.343Z,3.47
2019-05-13T13:33:16.711Z,2.85
2019-05-13T13:35:54.985Z,2.52
2019-05-13T13:38:16.857Z,4.53
2019-05-13T13:40:46.279Z,3.87
2019-05-13T13:43:15.773Z,4.35
2019-05-13T13:46:06.556Z,3.17
2019-05-13T13:48:15.427Z,4.67
2019-05-13T13:50:44.711Z,3.77
2019-05-13T13:56:02.518Z,3.00
2019-05-13T13:59:14.287Z,3.85
2019-05-13T14:01:54.811Z,2.47
2019-05-13T14:04:21.924Z,3.45
2019-05-13T14:09:29.165Z,3.22
2019-05-13T14:11:58.620Z,4.92
2019-05-13T14:14:27.732Z,4.42
2019-05-13T14:16:56.904Z,3.20
2019-05-13T14:19:37.778Z,3.27
2019-05-13T14:22:12.813Z,8.63
2019-05-13T14:24:48.572Z,6.00
2019-05-13T14:27:31.330Z,6.80
2019-05-13T14:32:44.617Z,4.35
2019-05-13T14:35:34.908Z,6.28
2019-05-13T14:38:15.921Z,5.58
2019-05-13T14:40:51.938Z,3.08
2019-05-13T14:46:46.391Z,5.17
2019-05-13T14:49:18.316Z,6.58
2019-05-13T14:51:51.946Z,8.63
2019-05-13T14:54:35.093Z,6.55
2019-05-13T14:57:21.917Z,6.37
2019-05-13T14:59:56.631Z,7.92
2019-05-13T15:02:26.263Z,5.70
2019-05-13T15:05:06.464Z,3.65
2019-05-13T15:07:32.331Z,4.58
2019-05-13T15:10:02.562Z,4.40
2019-05-13T15:12:37.883Z,4.30
2019-05-13T15:15:07.605Z,5.60
2019-05-13T15:17:46.159Z,2.98
2019-05-13T15:20:16.260Z,9.13
2019-05-13T15:22:51.676Z,4.10
2019-05-13T15:25:22.544Z,4.60
2019-05-13T15:27:58.837Z,5.97
2019-05-13T15:30:28.731Z,5.40
2019-05-13T15:35:57.727Z,4.78
2019-05-13T15:38:27.495Z,7.25
2019-05-13T15:41:07.098Z,2.40
2019-05-13T15:43:54.672Z,7.17
2019-05-13T15:46:35.250Z,5.42
2019-05-13T15:49:08.474Z,4.45
2019-05-13T15:51:42.232Z,128.47
2019-05-13T15:54:15.285Z,129.95
2019-05-13T15:56:43.128Z,118.08
2019-05-13T15:59:12.764Z,67.72
2019-05-13T16:01:42.369Z,65.10
2019-05-13T16:04:18.475Z,68.10
2019-05-13T16:07:12.270Z,183.50
2019-05-13T16:09:42.252Z,153.57
2019-05-13T16:12:37.943Z,93.87
2019-05-13T16:15:17.631Z,74.97
2019-05-13T16:18:32.951Z,77.75
2019-05-13T16:21:02.173Z,58.00
2019-05-13T16:23:51.975Z,47.88
2019-05-13T16:26:27.250Z,53.20
2019-05-13T16:29:02.444Z,47.98
2019-05-13T16:31:48.936Z,46.20
2019-05-13T16:34:22.287Z,42.73
2019-05-13T16:37:01.879Z,42.33
2019-05-13T16:39:33.716Z,45.17
2019-05-13T16:42:07.851Z,43.60
2019-05-13T16:44:38.513Z,49.13
2019-05-13T16:47:07.668Z,41.90
2019-05-13T16:49:37.285Z,44.90
2019-05-13T16:52:08.700Z,35.25
2019-05-13T16:58:05.817Z,37.05
2019-05-13T17:00:37.806Z,36.90
2019-05-13T17:03:11.352Z,38.88
2019-05-13T17:05:46.411Z,32.67
2019-05-13T17:08:20.032Z,36.25
2019-05-13T17:10:52.475Z,40.45
2019-05-13T17:13:22.278Z,38.40
2019-05-13T17:16:03.153Z,35.15
2019-05-13T17:18:32.684Z,28.37
2019-05-13T17:21:31.671Z,31.68
2019-05-13T17:24:17.955Z,28.10
2019-05-13T17:27:01.495Z,32.85
2019-05-13T17:29:42.039Z,35.00
2019-05-13T17:32:14.212Z,35.90
2019-05-13T17:34:51.666Z,26.52
2019-05-13T17:37:23.721Z,24.70
2019-05-13T17:40:12.823Z,28.55
2019-05-13T17:42:47.526Z,26.20
2019-05-13T17:45:23.571Z,26.20
2019-05-13T17:48:28.373Z,22.48
2019-05-13T17:51:01.116Z,16.77
2019-05-13T17:54:08.625Z,18.82
2019-05-13T17:56:51.716Z,14.68
2019-05-13T17:59:46.671Z,19.62
2019-05-13T18:02:42.307Z,14.73
2019-05-13T18:05:12.208Z,16.77
2019-05-13T18:08:06.271Z,14.75
2019-05-13T18:10:34.852Z,15.38
2019-05-13T18:13:06.530Z,19.10
2019-05-13T18:15:47.876Z,13.38
2019-05-13T18:21:12.516Z,14.15
2019-05-13T18:24:05.203Z,16.93
2019-05-13T18:26:42.212Z,20.97
2019-05-13T18:29:23.630Z,18.27
2019-05-13T18:31:56.279Z,15.38
2019-05-13T18:34:50.405Z,18.15
2019-05-13T18:39:37.778Z,14.38
2019-05-13T18:40:48.890Z,13.60
2019-05-13T18:43:23.997Z,11.97
2019-05-13T18:46:09.127Z,13.80
2019-05-13T18:48:58.326Z,12.35
2019-05-13T18:51:32.952Z,15.93
2019-05-13T18:54:03.374Z,14.70
2019-05-13T18:56:32.994Z,13.98
2019-05-13T18:59:03.287Z,11.00
2019-05-13T19:01:47.913Z,13.65
2019-05-13T19:04:18.801Z,11.15
2019-05-13T19:06:54.339Z,10.87
2019-05-13T19:09:23.525Z,13.60
2019-05-13T19:11:52.891Z,16.23
2019-05-13T19:14:26.929Z,9.15
2019-05-13T19:17:02.416Z,19.12
2019-05-13T19:19:37.037Z,20.92
2019-05-13T19:22:25.492Z,9.58
2019-05-13T19:24:54.995Z,16.15
2019-05-13T19:27:32.063Z,11.53
2019-05-13T19:30:02.744Z,18.00
2019-05-13T19:32:34.913Z,15.60
2019-05-13T19:35:08.462Z,17.90
2019-05-13T19:37:35.321Z,15.40
2019-05-13T19:40:04.909Z,16.07
2019-05-13T19:42:41.662Z,14.40
2019-05-13T19:45:15.377Z,10.05
2019-05-13T19:47:55.709Z,8.33
2019-05-13T19:50:27.848Z,16.95
2019-05-13T19:53:12.087Z,20.55
2019-05-13T19:55:41.587Z,8.03
2019-05-13T19:58:12.403Z,11.25
2019-05-13T20:00:42.448Z,10.72
2019-05-13T20:03:12.125Z,9.35
2019-05-13T20:05:47.958Z,8.35
2019-05-13T20:08:17.093Z,12.03
2019-05-13T20:10:46.169Z,12.05
2019-05-13T20:13:15.440Z,11.28
2019-05-13T20:15:51.879Z,13.30
2019-05-13T20:18:22.909Z,9.58
2019-05-13T20:20:52.242Z,10.13
2019-05-13T20:23:25.689Z,9.80
2019-05-13T20:25:57.421Z,8.85
2019-05-13T20:28:33.659Z,11.73
2019-05-13T20:31:03.075Z,10.72
2019-05-13T20:33:39.957Z,8.45
2019-05-13T20:36:11.762Z,11.60
2019-05-13T20:38:40.882Z,6.87
2019-05-13T20:41:19.218Z,8.20
2019-05-13T20:43:58.466Z,7.55
2019-05-13T20:46:24.921Z,8.83
2019-05-13T20:48:57.409Z,9.55
2019-05-13T20:51:34.074Z,7.00
2019-05-13T20:54:34.369Z,8.98
2019-05-13T20:57:06.936Z,6.40
2019-05-13T20:59:38.122Z,8.60
2019-05-13T21:02:07.188Z,7.62
2019-05-13T21:04:42.372Z,7.72
2019-05-13T21:07:12.050Z,8.15
2019-05-13T21:09:42.343Z,4.83
2019-05-13T21:12:12.177Z,5.97
2019-05-13T21:14:46.783Z,6.10
2019-05-13T21:17:16.570Z,7.00
2019-05-13T21:19:46.098Z,5.92
2019-05-13T21:22:24.205Z,4.90
2019-05-13T21:24:56.678Z,6.42
2019-05-13T21:27:31.514Z,4.87
2019-05-13T21:30:01.360Z,6.50
2019-05-13T21:32:31.033Z,5.53
2019-05-13T21:35:01.773Z,4.50
2019-05-13T21:37:31.499Z,4.73
2019-05-13T21:40:00.841Z,4.85
2019-05-13T21:42:32.142Z,3.05
2019-05-13T21:45:03.984Z,8.30
2019-05-13T21:47:38.097Z,3.85
2019-05-13T21:50:04.838Z,5.08
2019-05-13T21:52:34.802Z,3.90
2019-05-13T21:55:03.875Z,5.37
2019-05-13T21:57:37.979Z,4.67
2019-05-13T22:00:09.889Z,3.30
2019-05-13T22:02:41.145Z,4.95
2019-05-13T22:05:11.634Z,3.40
2019-05-13T22:07:42.112Z,3.98
2019-05-13T22:10:12.006Z,4.83
2019-05-13T22:12:44.750Z,3.65
2019-05-13T22:15:17.416Z,2.55
2019-05-13T22:17:47.019Z,3.25
2019-05-13T22:20:21.354Z,3.10
2019-05-13T22:22:52.053Z,3.08
2019-05-13T22:25:21.739Z,2.35
2019-05-13T22:28:02.144Z,3.15
2019-05-13T22:30:33.498Z,3.70
2019-05-13T22:33:04.628Z,4.75
2019-05-13T22:35:38.250Z,3.00
2019-05-13T22:38:34.390Z,2.98
2019-05-13T22:41:04.949Z,4.65
2019-05-13T22:43:55.665Z,3.50
2019-05-13T22:46:21.359Z,3.15
2019-05-13T22:48:51.348Z,2.90
2019-05-13T22:51:31.845Z,2.42
2019-05-13T22:54:00.669Z,2.85
2019-05-13T22:56:31.978Z,2.42
2019-05-13T22:59:02.044Z,3.72
2019-05-13T23:01:32.416Z,3.27
2019-05-13T23:04:07.983Z,3.20
2019-05-13T23:06:40.296Z,4.17
2019-05-13T23:09:12.319Z,2.47
2019-05-13T23:11:41.755Z,2.98
2019-05-13T23:14:13.463Z,2.75
2019-05-13T23:16:42.271Z,2.67
2019-05-13T23:19:11.800Z,2.37
2019-05-13T23:21:41.770Z,2.92
2019-05-13T23:27:13.514Z,3.98
2019-05-13T23:29:42.783Z,2.27
2019-05-13T23:32:15.153Z,2.27
2019-05-13T23:34:46.001Z,2.10
2019-05-13T23:37:21.901Z,1.85
2019-05-13T23:39:52.052Z,1.30
2019-05-13T23:42:25.030Z,2.05
2019-05-13T23:44:54.496Z,3.40
2019-05-13T23:47:26.812Z,2.10
2019-05-13T23:49:56.077Z,1.80
2019-05-13T23:52:27.341Z,3.25
2019-05-13T23:55:02.128Z,2.17
2019-05-13T23:57:31.645Z,1.50
